Time;durP1;ratioP1;P1;durP2;ratioP2;P2;SDS_P1;SDS_P2;PMS_P1;PMS_P2;Temp;Humidity;BMP_temperature;BMP_pressure;BME280_temperature;BME280_humidity;BME280_pressure;Samples;Min_cycle;Max_cycle;Signal;HPM_P1;HPM_P2
2023/03/08 03:01:12;;;;;;;14.93;13.33;;;3.30;99.90;;;;;;5673118;23;20225;-81
2023/03/08 03:03:39;;;;;;;14.00;12.60;;;3.30;99.90;;;;;;4980115;28;20690;-78
2023/03/08 03:06:13;;;;;;;14.80;13.30;;;3.30;99.90;;;;;;4983733;28;20232;-78
2023/03/08 03:08:40;;;;;;;14.90;13.37;;;3.30;99.90;;;;;;4993518;28;20196;-77
2023/03/08 03:11:12;;;;;;;15.33;13.80;;;3.30;99.90;;;;;;4983797;28;20225;-76
2023/03/08 03:13:38;;;;;;;13.60;12.20;;;3.30;99.90;;;;;;4986298;28;20204;-77
2023/03/08 03:16:07;;;;;;;14.23;12.83;;;3.30;99.90;;;;;;4988182;28;20200;-77
2023/03/08 03:18:35;;;;;;;14.17;12.83;;;3.40;99.90;;;;;;4983003;28;20759;-77
2023/03/08 03:21:03;;;;;;;14.77;13.27;;;3.40;99.90;;;;;;4975789;28;20374;-80
2023/03/08 03:23:30;;;;;;;13.90;12.40;;;3.50;99.90;;;;;;4978440;28;20226;-78
2023/03/08 03:25:57;;;;;;;13.77;12.40;;;3.50;99.90;;;;;;4980812;28;20216;-78
2023/03/08 03:28:24;;;;;;;14.77;12.93;;;3.40;99.90;;;;;;4967417;28;20198;-77
2023/03/08 03:30:51;;;;;;;14.47;13.13;;;3.50;99.90;;;;;;4979688;28;20222;-78
2023/03/08 03:33:18;;;;;;;14.07;12.77;;;3.50;99.90;;;;;;4980950;28;20269;-79
2023/03/08 03:35:46;;;;;;;14.37;12.40;;;3.50;99.90;;;;;;4994155;28;20194;-79
2023/03/08 03:38:13;;;;;;;14.30;13.00;;;3.50;99.90;;;;;;4985534;28;20620;-79
2023/03/08 03:40:43;;;;;;;14.20;12.80;;;3.60;99.90;;;;;;4981909;28;20209;-79
2023/03/08 03:43:10;;;;;;;13.90;12.60;;;3.60;99.90;;;;;;4978700;28;20206;-79
2023/03/08 03:45:37;;;;;;;13.50;12.20;;;3.60;99.90;;;;;;4983951;28;20205;-80
2023/03/08 03:48:04;;;;;;;14.33;12.93;;;3.60;99.90;;;;;;4980608;28;20287;-79
2023/03/08 03:50:31;;;;;;;13.73;12.40;;;3.70;99.90;;;;;;4979400;28;20234;-80
2023/03/08 03:53:04;;;;;;;13.60;12.20;;;3.70;99.90;;;;;;4990480;28;20205;-85
2023/03/08 03:55:32;;;;;;;14.43;12.43;;;3.70;99.90;;;;;;4964162;28;20233;-86
2023/03/08 03:58:00;;;;;;;13.63;12.33;;;3.70;99.90;;;;;;4983246;28;20229;-85
2023/03/08 04:00:27;;;;;;;13.40;12.10;;;3.70;99.90;;;;;;4956685;28;20830;-86
2023/03/08 04:03:09;;;;;;;12.97;11.70;;;3.70;99.90;;;;;;4966302;28;20202;-85
2023/03/08 04:05:38;;;;;;;13.43;12.00;;;3.70;99.90;;;;;;4990720;28;20212;-85
2023/03/08 04:08:07;;;;;;;13.33;12.10;;;3.70;99.90;;;;;;4982176;28;20256;-86
2023/03/08 04:10:36;;;;;;;14.23;12.73;;;3.70;99.90;;;;;;4967687;28;20198;-85
2023/03/08 04:13:02;;;;;;;12.83;11.60;;;3.70;99.90;;;;;;4971014;28;20675;-85
2023/03/08 04:15:29;;;;;;;13.67;12.37;;;3.60;99.90;;;;;;4984568;28;20225;-86
2023/03/08 04:18:00;;;;;;;14.50;13.07;;;3.50;99.90;;;;;;4986761;28;20209;-86
2023/03/08 04:20:30;;;;;;;13.40;12.10;;;3.50;99.90;;;;;;4976563;28;20210;-82
2023/03/08 04:22:59;;;;;;;14.77;13.43;;;3.50;99.90;;;;;;4977351;28;20210;-84
2023/03/08 04:25:33;;;;;;;14.53;13.03;;;3.50;99.90;;;;;;4980582;28;20305;-84
2023/03/08 04:28:01;;;;;;;13.97;12.50;;;3.50;99.90;;;;;;4973559;28;20261;-84
2023/03/08 04:30:29;;;;;;;15.33;13.77;;;3.50;99.90;;;;;;4978910;28;20199;-84
2023/03/08 04:32:58;;;;;;;14.07;12.77;;;3.50;99.90;;;;;;4985196;28;20199;-83
2023/03/08 04:35:31;;;;;;;14.30;12.80;;;3.50;99.90;;;;;;4981966;28;20203;-84
2023/03/08 04:37:57;;;;;;;13.90;12.40;;;3.50;99.90;;;;;;4991045;28;20224;-84
2023/03/08 04:40:26;;;;;;;14.13;12.83;;;3.40;99.90;;;;;;4992962;28;20220;-84
2023/03/08 04:42:59;;;;;;;14.63;13.13;;;3.50;99.90;;;;;;4976096;28;20208;-79
2023/03/08 04:45:37;;;;;;;15.23;13.77;;;3.50;99.90;;;;;;4990782;28;20201;-78
2023/03/08 04:48:09;;;;;;;14.20;12.93;;;3.50;99.90;;;;;;4976432;28;20197;-78
2023/03/08 04:50:38;;;;;;;15.40;13.00;;;3.50;99.90;;;;;;4987933;28;20208;-78
2023/03/08 04:53:05;;;;;;;15.63;14.13;;;3.50;99.90;;;;;;4980857;28;20194;-78
2023/03/08 04:55:32;;;;;;;14.97;13.47;;;3.60;99.90;;;;;;4987425;28;20630;-79
2023/03/08 04:58:00;;;;;;;14.43;12.97;;;3.50;99.90;;;;;;4977740;28;20248;-78
2023/03/08 05:00:29;;;;;;;15.33;13.83;;;3.60;99.90;;;;;;4987297;28;20655;-80
2023/03/08 05:02:57;;;;;;;15.67;14.07;;;3.60;99.90;;;;;;4992776;28;20204;-78
2023/03/08 05:05:24;;;;;;;15.03;13.53;;;3.60;99.90;;;;;;4991170;28;20242;-78
2023/03/08 05:07:53;;;;;;;14.43;12.93;;;3.60;99.90;;;;;;4996575;28;20209;-80
2023/03/08 05:10:20;;;;;;;14.37;12.63;;;3.70;99.90;;;;;;4992678;28;20206;-79
2023/03/08 05:12:46;;;;;;;14.07;12.70;;;3.70;99.90;;;;;;4982084;28;20205;-77
2023/03/08 05:15:15;;;;;;;13.93;12.63;;;3.80;99.90;;;;;;4993289;28;20197;-78
2023/03/08 05:17:42;;;;;;;14.23;12.73;;;3.80;99.90;;;;;;4984145;28;20632;-77
2023/03/08 05:20:10;;;;;;;13.93;12.50;;;3.80;99.90;;;;;;4978520;28;20201;-77
2023/03/08 05:22:40;;;;;;;14.23;12.77;;;3.90;99.90;;;;;;4975727;28;20250;-80
2023/03/08 05:25:09;;;;;;;14.03;12.70;;;3.90;99.90;;;;;;4969439;28;20198;-77
2023/03/08 05:27:37;;;;;;;13.47;12.17;;;3.90;99.90;;;;;;4976066;28;20588;-77
2023/03/08 05:30:07;;;;;;;14.57;13.20;;;3.90;99.90;;;;;;4986964;28;20542;-77
2023/03/08 05:32:35;;;;;;;14.20;12.80;;;3.90;99.90;;;;;;4989454;28;20247;-77
2023/03/08 05:35:02;;;;;;;14.70;13.20;;;3.90;99.90;;;;;;4983822;28;20213;-77
2023/03/08 05:37:33;;;;;;;13.00;11.77;;;3.90;99.90;;;;;;4996775;28;20212;-77
2023/03/08 05:40:05;;;;;;;14.93;13.53;;;4.00;99.90;;;;;;4981516;28;20234;-78
2023/03/08 05:42:33;;;;;;;15.00;13.60;;;3.90;99.90;;;;;;4981109;28;20220;-79
2023/03/08 05:45:00;;;;;;;15.67;13.40;;;3.90;99.90;;;;;;4990665;28;20247;-79
2023/03/08 05:47:31;;;;;;;15.43;13.83;;;3.90;99.90;;;;;;4988991;28;20201;-77
2023/03/08 05:49:59;;;;;;;16.17;13.57;;;3.90;99.90;;;;;;4992722;28;20292;-78
2023/03/08 05:52:28;;;;;;;15.10;13.60;;;4.00;99.90;;;;;;4990053;28;20244;-77
2023/03/08 05:54:58;;;;;;;15.23;13.73;;;3.90;99.90;;;;;;4977789;28;20205;-77
2023/03/08 05:57:25;;;;;;;16.23;14.63;;;3.90;99.90;;;;;;4989532;28;20229;-78
2023/03/08 05:59:52;;;;;;;15.90;13.90;;;4.00;99.90;;;;;;4992532;28;20235;-78
2023/03/08 06:02:22;;;;;;;16.60;14.73;;;4.00;99.90;;;;;;4979581;28;20230;-77
2023/03/08 06:04:52;;;;;;;14.83;13.43;;;4.10;99.90;;;;;;4976810;28;20626;-77
2023/03/08 06:07:23;;;;;;;17.23;14.87;;;4.10;99.90;;;;;;4982828;28;20220;-78
2023/03/08 06:09:55;;;;;;;14.43;13.20;;;4.20;99.90;;;;;;4982067;28;20636;-77
2023/03/08 06:12:23;;;;;;;15.30;13.83;;;4.20;99.90;;;;;;4982289;28;20230;-77
2023/03/08 06:14:54;;;;;;;15.30;13.83;;;4.20;99.90;;;;;;4983323;28;20201;-78
2023/03/08 06:17:23;;;;;;;14.77;13.37;;;4.30;99.90;;;;;;4985599;28;20649;-78
2023/03/08 06:19:51;;;;;;;15.93;14.37;;;4.30;99.90;;;;;;4988912;28;20221;-78
2023/03/08 06:22:18;;;;;;;15.70;14.00;;;4.40;99.90;;;;;;4981853;28;20228;-78
2023/03/08 06:24:48;;;;;;;15.93;14.33;;;4.40;99.90;;;;;;4988345;28;20195;-80
2023/03/08 06:27:18;;;;;;;16.40;14.80;;;4.50;99.90;;;;;;4985906;28;20218;-78
2023/03/08 06:29:47;;;;;;;16.60;15.00;;;4.50;99.90;;;;;;4991018;28;20605;-78
2023/03/08 06:32:15;;;;;;;17.80;15.83;;;4.50;99.90;;;;;;4985954;28;20306;-78
2023/03/08 06:34:42;;;;;;;20.63;15.93;;;4.50;99.90;;;;;;4980982;28;20213;-79
2023/03/08 06:37:10;;;;;;;17.20;15.43;;;4.60;99.90;;;;;;4978651;28;20201;-78
2023/03/08 06:39:37;;;;;;;16.83;15.20;;;4.70;99.90;;;;;;4992179;28;20605;-79
2023/03/08 06:42:07;;;;;;;15.83;14.33;;;4.70;99.90;;;;;;4982405;28;20221;-78
2023/03/08 06:44:35;;;;;;;15.83;14.27;;;4.80;99.90;;;;;;4990554;28;20198;-78
2023/03/08 06:47:02;;;;;;;15.87;14.27;;;4.80;99.90;;;;;;4987318;28;20220;-79
2023/03/08 06:49:29;;;;;;;17.97;15.17;;;4.90;99.90;;;;;;4984751;28;20193;-78
2023/03/08 06:51:55;;;;;;;18.00;15.77;;;5.00;99.90;;;;;;4981443;28;20706;-79
2023/03/08 06:54:23;;;;;;;17.43;15.57;;;5.00;99.90;;;;;;4988522;28;20211;-78
2023/03/08 06:56:50;;;;;;;17.67;15.23;;;5.10;99.90;;;;;;4982512;28;20301;-79
2023/03/08 06:59:18;;;;;;;16.13;14.53;;;5.20;99.90;;;;;;4979218;28;20218;-79
2023/03/08 07:01:45;;;;;;;16.60;14.83;;;5.30;99.90;;;;;;4984497;28;20234;-79
2023/03/08 07:04:11;;;;;;;19.30;17.23;;;5.40;99.90;;;;;;4989642;28;20219;-78
2023/03/08 07:06:38;;;;;;;17.53;15.73;;;5.40;99.90;;;;;;4992497;28;20246;-80
2023/03/08 07:09:05;;;;;;;19.17;17.27;;;5.50;99.90;;;;;;4984263;28;20206;-81
2023/03/08 07:11:33;;;;;;;18.07;16.17;;;5.50;99.90;;;;;;4991827;28;20289;-79
2023/03/08 07:13:59;;;;;;;16.70;15.00;;;5.50;99.90;;;;;;4984024;28;20296;-79
2023/03/08 07:16:28;;;;;;;17.93;15.73;;;5.60;99.90;;;;;;4981396;28;20623;-79
2023/03/08 07:18:55;;;;;;;18.23;15.73;;;5.70;99.90;;;;;;4980689;28;20590;-79
2023/03/08 07:21:23;;;;;;;17.93;15.73;;;5.80;99.90;;;;;;4985333;28;20257;-79
2023/03/08 07:23:52;;;;;;;17.17;14.93;;;5.80;99.90;;;;;;4979586;28;20203;-79
2023/03/08 07:26:19;;;;;;;16.80;15.20;;;5.90;99.90;;;;;;4982810;28;20278;-79
2023/03/08 07:28:49;;;;;;;16.90;15.10;;;6.00;99.90;;;;;;4972877;28;20197;-79
2023/03/08 07:31:16;;;;;;;21.10;16.67;;;6.10;99.90;;;;;;4988652;28;20277;-79
2023/03/08 07:33:44;;;;;;;17.87;15.83;;;6.10;99.90;;;;;;4991350;28;20202;-82
2023/03/08 07:36:11;;;;;;;17.43;15.73;;;6.20;99.90;;;;;;4983335;28;20257;-79
2023/03/08 07:38:38;;;;;;;18.30;16.00;;;6.30;99.90;;;;;;4979865;28;20719;-79
2023/03/08 07:41:05;;;;;;;17.37;15.23;;;6.30;99.90;;;;;;4985523;28;20708;-79
2023/03/08 07:43:31;;;;;;;17.77;15.87;;;6.40;99.90;;;;;;4983664;28;20211;-79
2023/03/08 07:46:03;;;;;;;17.97;15.03;;;6.50;99.90;;;;;;4979335;28;20697;-80
2023/03/08 07:48:31;;;;;;;17.60;15.73;;;6.50;99.90;;;;;;4987204;28;20725;-79
2023/03/08 07:51:03;;;;;;;18.63;16.27;;;6.50;99.90;;;;;;4982524;28;20250;-79
2023/03/08 07:53:30;;;;;;;18.00;16.10;;;6.60;99.90;;;;;;4971720;28;20244;-79
2023/03/08 07:55:58;;;;;;;16.70;15.03;;;6.70;99.90;;;;;;4987360;28;20226;-80
2023/03/08 07:58:25;;;;;;;16.10;14.50;;;6.80;99.90;;;;;;4979784;28;20202;-79
2023/03/08 08:00:52;;;;;;;15.23;13.73;;;6.90;99.90;;;;;;4989270;28;20240;-85
2023/03/08 08:03:19;;;;;;;15.70;14.10;;;6.90;99.90;;;;;;4980838;28;20289;-85
2023/03/08 08:05:45;;;;;;;15.40;14.00;;;7.00;99.90;;;;;;4985692;28;20197;-86
2023/03/08 08:08:14;;;;;;;16.80;15.03;;;7.00;99.90;;;;;;4986763;28;20195;-84
2023/03/08 08:10:41;;;;;;;15.50;14.00;;;6.90;99.90;;;;;;4984762;28;20217;-87
2023/03/08 08:13:08;;;;;;;15.07;12.93;;;7.00;99.90;;;;;;4974018;28;20249;-85
2023/03/08 08:15:35;;;;;;;15.40;13.90;;;7.00;99.90;;;;;;4983056;28;20570;-83
2023/03/08 08:18:03;;;;;;;16.47;14.53;;;6.90;99.90;;;;;;4990615;28;20258;-87
2023/03/08 08:20:29;;;;;;;15.60;14.00;;;7.00;99.90;;;;;;4986955;28;20736;-81
2023/03/08 08:22:56;;;;;;;15.20;13.60;;;7.00;99.90;;;;;;4975353;28;20715;-79
2023/03/08 08:25:24;;;;;;;14.53;13.23;;;7.00;99.90;;;;;;4972124;28;20269;-80
2023/03/08 08:27:51;;;;;;;15.63;14.10;;;7.00;99.90;;;;;;4970364;28;20650;-79
2023/03/08 08:30:18;;;;;;;16.43;14.70;;;7.00;99.90;;;;;;4974334;28;20686;-80
2023/03/08 08:32:45;;;;;;;15.53;13.93;;;7.00;99.90;;;;;;4973347;28;20214;-80
2023/03/08 08:35:12;;;;;;;14.83;13.43;;;7.00;99.90;;;;;;4980514;28;20202;-79
2023/03/08 08:37:39;;;;;;;13.90;12.60;;;7.10;99.90;;;;;;4972097;28;20202;-79
2023/03/08 08:40:09;;;;;;;13.40;12.10;;;7.20;99.90;;;;;;4974167;28;20213;-79
2023/03/08 08:42:37;;;;;;;14.03;12.63;;;7.40;99.90;;;;;;4972982;28;20304;-79
2023/03/08 08:45:05;;;;;;;13.27;11.87;;;7.50;99.90;;;;;;4967094;28;20734;-87
2023/03/08 08:47:32;;;;;;;15.07;13.03;;;7.50;99.90;;;;;;4970660;28;20202;-86
2023/03/08 08:49:59;;;;;;;15.53;13.57;;;7.40;99.90;;;;;;4971817;28;20198;-85
2023/03/08 08:52:26;;;;;;;14.80;13.30;;;7.40;99.90;;;;;;4970132;28;20257;-79
2023/03/08 08:54:53;;;;;;;15.57;14.07;;;7.40;99.90;;;;;;4967785;28;20673;-80
2023/03/08 08:57:20;;;;;;;15.60;13.97;;;7.40;99.90;;;;;;4975022;28;20203;-80
2023/03/08 08:59:48;;;;;;;15.27;13.77;;;7.30;99.90;;;;;;4972440;28;20226;-80
2023/03/08 09:02:15;;;;;;;15.00;13.50;;;7.40;99.90;;;;;;4976355;28;20257;-80
2023/03/08 09:04:41;;;;;;;15.67;14.03;;;7.50;99.90;;;;;;4972637;28;20226;-80
2023/03/08 09:07:08;;;;;;;15.30;13.70;;;7.50;99.90;;;;;;4971061;28;20198;-80
2023/03/08 09:09:35;;;;;;;14.33;13.03;;;7.60;99.90;;;;;;4975115;28;20202;-80
2023/03/08 09:12:02;;;;;;;15.63;14.03;;;7.60;99.90;;;;;;4973611;28;20648;-81
2023/03/08 09:14:28;;;;;;;15.43;13.93;;;7.60;99.90;;;;;;4972973;28;20261;-80
2023/03/08 09:16:57;;;;;;;17.67;15.97;;;7.60;99.90;;;;;;4966742;28;20246;-80
2023/03/08 09:19:23;;;;;;;16.67;14.83;;;7.50;99.90;;;;;;4973359;28;20714;-80
2023/03/08 09:21:50;;;;;;;16.27;14.57;;;7.40;99.90;;;;;;4974244;28;20253;-80
2023/03/08 09:24:17;;;;;;;18.17;16.17;;;7.40;99.90;;;;;;4967811;28;20206;-80
2023/03/08 09:26:44;;;;;;;17.43;15.60;;;7.40;99.90;;;;;;4973427;28;20623;-80
2023/03/08 09:29:11;;;;;;;17.70;15.10;;;7.40;99.90;;;;;;4972517;28;20201;-79
2023/03/08 09:31:41;;;;;;;15.83;14.13;;;7.50;99.90;;;;;;4973707;28;20218;-80
2023/03/08 09:34:13;;;;;;;15.77;13.80;;;7.50;99.90;;;;;;4969366;28;20205;-80
2023/03/08 09:36:40;;;;;;;16.43;14.67;;;7.60;99.90;;;;;;4971155;28;20225;-79
2023/03/08 09:39:07;;;;;;;14.40;12.90;;;7.70;99.90;;;;;;4970551;28;20296;-80
2023/03/08 09:41:46;;;;;;;13.70;12.30;;;7.90;99.90;;;;;;4967815;28;20218;-80
2023/03/08 09:44:42;;;;;;;12.50;11.20;;;8.00;99.90;;;;;;4960763;28;20217;-80
2023/03/08 09:47:16;;;;;;;10.30;9.40;;;8.20;99.90;;;;;;4964771;28;20220;-80
2023/03/08 09:49:49;;;;;;;10.07;9.27;;;8.40;99.90;;;;;;4971282;28;20194;-79
2023/03/08 09:52:22;;;;;;;9.40;8.57;;;8.60;99.90;;;;;;4973535;28;20229;-80
2023/03/08 09:54:51;;;;;;;10.73;9.83;;;8.80;99.90;;;;;;4969116;28;20209;-80
2023/03/08 09:57:22;;;;;;;9.80;9.00;;;9.10;99.90;;;;;;4972178;28;20202;-81
2023/03/08 09:59:54;;;;;;;9.60;8.80;;;9.40;99.90;;;;;;4974106;28;20233;-80
2023/03/08 10:02:31;;;;;;;7.63;7.03;;;9.70;99.90;;;;;;4982386;28;20230;-80
2023/03/08 10:05:05;;;;;;;9.17;8.37;;;9.90;99.90;;;;;;4983397;28;20255;-79
2023/03/08 10:07:41;;;;;;;9.73;8.97;;;10.00;99.90;;;;;;4978919;28;20272;-81
2023/03/08 10:10:18;;;;;;;9.40;8.70;;;10.10;99.90;;;;;;4978405;28;20666;-80
2023/03/08 10:12:54;;;;;;;8.70;8.00;;;10.20;99.90;;;;;;4981799;28;20250;-80
2023/03/08 10:15:24;;;;;;;9.60;8.80;;;10.30;99.90;;;;;;4975029;28;20698;-81
2023/03/08 10:17:55;;;;;;;9.00;8.30;;;10.50;99.90;;;;;;4982588;28;20245;-80
2023/03/08 10:20:26;;;;;;;9.80;9.00;;;10.40;99.90;;;;;;4979394;28;20265;-80
2023/03/08 10:22:58;;;;;;;9.90;9.10;;;10.40;99.90;;;;;;4985941;28;20215;-80
2023/03/08 10:25:27;;;;;;;12.37;10.13;;;10.40;99.90;;;;;;4968262;28;20199;-80
2023/03/08 10:27:56;;;;;;;9.60;8.80;;;10.40;99.90;;;;;;4956502;28;20210;-80
2023/03/08 10:30:26;;;;;;;9.90;9.10;;;10.40;99.90;;;;;;4959532;28;20199;-79
2023/03/08 10:32:58;;;;;;;8.87;8.27;;;10.50;99.90;;;;;;4962332;28;20660;-80
2023/03/08 10:35:36;;;;;;;9.10;8.40;;;10.60;99.90;;;;;;4968878;28;20213;-83
2023/03/08 10:38:04;;;;;;;9.77;9.07;;;10.70;99.90;;;;;;4973129;28;20291;-80
2023/03/08 10:40:30;;;;;;;9.83;9.03;;;10.80;99.90;;;;;;4959137;28;20285;-80
2023/03/08 10:43:00;;;;;;;10.10;9.40;;;11.00;99.90;;;;;;4958836;28;20201;-80
2023/03/08 10:45:29;;;;;;;10.07;9.30;;;11.10;99.90;;;;;;4966337;28;20205;-80
2023/03/08 10:47:59;;;;;;;10.10;9.40;;;11.40;99.90;;;;;;4967284;28;20236;-80
2023/03/08 10:50:27;;;;;;;10.27;9.57;;;11.50;99.90;;;;;;4962250;28;20285;-79
2023/03/08 10:52:56;;;;;;;10.03;9.43;;;11.70;99.90;;;;;;4963970;28;20258;-80
2023/03/08 10:55:26;;;;;;;10.13;9.33;;;11.90;99.90;;;;;;4958668;28;20203;-80
2023/03/08 10:57:54;;;;;;;9.70;9.00;;;11.90;99.90;;;;;;4961649;28;20211;-81
2023/03/08 11:00:32;;;;;;;9.67;8.87;;;12.10;99.90;;;;;;4968477;28;20222;-80
2023/03/08 11:03:11;;;;;;;5.80;5.30;;;12.30;99.90;;;;;;4971336;28;20202;-80
2023/03/08 11:05:38;;;;;;;6.40;6.00;;;12.50;99.90;;;;;;4965825;28;20268;-82
2023/03/08 11:08:18;;;;;;;7.13;6.57;;;12.70;99.90;;;;;;4958916;28;20208;-80
2023/03/08 11:10:45;;;;;;;6.90;6.30;;;12.80;99.90;;;;;;4965204;28;20305;-80
2023/03/08 11:13:28;;;;;;;8.30;7.80;;;12.90;99.90;;;;;;4966255;28;20236;-80
2023/03/08 11:16:01;;;;;;;6.90;6.30;;;13.10;99.90;;;;;;4966909;28;20202;-81
2023/03/08 11:18:42;;;;;;;6.90;6.30;;;13.30;99.90;;;;;;4964671;28;20203;-80
2023/03/08 11:21:16;;;;;;;5.60;5.20;;;13.40;99.90;;;;;;4947060;28;20213;-79
2023/03/08 11:23:54;;;;;;;8.70;7.87;;;13.50;99.90;;;;;;4975459;28;20200;-80
2023/03/08 11:26:27;;;;;;;2.85;2.60;;;13.50;99.90;;;;;;4951441;28;20437;-81
2023/03/08 11:29:11;;;;;;;4.83;4.43;;;13.60;99.90;;;;;;4958594;28;20253;-81
2023/03/08 11:31:44;;;;;;;6.13;4.27;;;13.80;99.90;;;;;;4943895;28;20251;-80
2023/03/08 11:34:24;;;;;;;4.70;4.20;;;13.90;99.90;;;;;;4945094;28;20199;-77
2023/03/08 11:37:02;;;;;;;3.90;3.70;;;13.90;99.90;;;;;;4950616;28;20689;-79
2023/03/08 11:39:33;;;;;;;2.25;2.10;;;13.90;99.90;;;;;;4945267;28;20447;-78
2023/03/08 11:42:07;;;;;;;2.60;1.90;;;13.90;99.90;;;;;;4950306;28;20237;-79
2023/03/08 11:44:57;;;;;;;2.13;2.00;;;13.90;99.90;;;;;;4959342;28;20194;-80
2023/03/08 11:47:44;;;;;;;6.33;2.50;;;14.00;99.90;;;;;;4952247;28;20208;-79
2023/03/08 11:50:19;;;;;;;2.80;2.60;;;14.00;99.90;;;;;;4966960;28;20208;-78
2023/03/08 11:52:57;;;;;;;2.00;1.90;;;13.90;99.90;;;;;;4968317;28;20200;-79
2023/03/08 11:55:39;;;;;;;2.20;2.00;;;14.00;99.90;;;;;;4969494;28;20706;-78
2023/03/08 11:58:11;;;;;;;3.03;1.70;;;14.20;99.90;;;;;;4965668;28;20229;-79
2023/03/08 12:00:41;;;;;;;3.40;1.80;;;14.30;99.90;;;;;;4966518;28;20212;-79
2023/03/08 12:03:13;;;;;;;1.80;1.70;;;14.50;99.90;;;;;;4971940;28;20210;-78
2023/03/08 12:05:43;;;;;;;2.23;2.03;;;14.50;99.90;;;;;;4968198;28;20209;-78
2023/03/08 12:08:15;;;;;;;1.90;1.80;;;14.40;99.90;;;;;;4961340;28;20753;-78
2023/03/08 12:10:48;;;;;;;2.00;1.90;;;14.20;99.90;;;;;;4964606;28;20284;-79
2023/03/08 12:13:20;;;;;;;2.07;1.90;;;14.10;99.90;;;;;;4968622;28;20272;-79
2023/03/08 12:15:53;;;;;;;3.53;3.13;;;13.90;99.90;;;;;;4970827;28;20211;-77
2023/03/08 12:18:27;;;;;;;4.87;4.57;;;13.80;99.90;;;;;;4963010;28;20202;-79
2023/03/08 12:20:58;;;;;;;6.87;5.17;;;13.60;99.90;;;;;;4953485;28;20228;-79
2023/03/08 12:23:34;;;;;;;4.53;3.77;;;13.50;99.90;;;;;;4947030;28;20247;-77
2023/03/08 12:26:07;;;;;;;8.47;7.97;;;13.50;99.90;;;;;;4953599;28;20202;-79
2023/03/08 12:28:39;;;;;;;9.00;8.30;;;13.70;99.90;;;;;;4948984;28;20223;-79
2023/03/08 12:31:20;;;;;;;8.60;8.10;;;13.70;99.90;;;;;;4946933;28;20646;-78
2023/03/08 12:33:47;;;;;;;8.30;7.90;;;13.80;99.90;;;;;;4951911;28;20206;-80
2023/03/08 12:36:14;;;;;;;8.37;7.87;;;13.80;99.90;;;;;;4944247;28;20197;-78
2023/03/08 12:38:45;;;;;;;8.40;7.80;;;13.80;99.90;;;;;;4948095;28;20651;-78
2023/03/08 12:41:24;;;;;;;8.40;7.80;;;13.80;99.90;;;;;;4953593;28;20644;-80
2023/03/08 12:44:02;;;;;;;8.37;7.87;;;13.80;99.90;;;;;;4955704;28;20665;-79
2023/03/08 12:46:43;;;;;;;8.73;8.13;;;13.80;99.90;;;;;;4954311;28;20202;-80
2023/03/08 12:49:19;;;;;;;8.57;8.07;;;13.90;99.90;;;;;;4962018;28;20194;-80
2023/03/08 12:52:00;;;;;;;8.10;7.50;;;13.80;99.90;;;;;;4970593;28;20268;-82
2023/03/08 12:54:30;;;;;;;7.67;7.07;;;13.60;99.90;;;;;;4966613;28;20213;-81
2023/03/08 12:57:00;;;;;;;7.40;7.00;;;13.40;99.90;;;;;;4971675;28;20202;-80
2023/03/08 12:59:33;;;;;;;7.70;7.30;;;13.30;99.90;;;;;;4964409;28;20628;-80
2023/03/08 13:02:03;;;;;;;8.40;7.80;;;13.10;99.90;;;;;;4962116;28;20298;-80
2023/03/08 13:04:32;;;;;;;7.93;7.53;;;13.00;99.90;;;;;;4966967;28;20254;-80
2023/03/08 13:07:20;;;;;;;8.33;7.83;;;13.00;99.90;;;;;;4966864;28;20272;-80
2023/03/08 13:09:54;;;;;;;8.37;7.87;;;12.90;99.90;;;;;;4954149;28;20201;-80
2023/03/08 13:12:29;;;;;;;8.57;7.97;;;12.90;99.90;;;;;;4964334;28;20781;-80
2023/03/08 13:15:08;;;;;;;8.20;7.70;;;12.90;99.90;;;;;;4969942;28;20394;-79
2023/03/08 13:17:39;;;;;;;7.77;7.37;;;12.90;99.90;;;;;;4965150;28;20746;-79
2023/03/08 13:20:16;;;;;;;8.00;7.50;;;12.80;99.90;;;;;;4964664;28;20214;-79
2023/03/08 13:22:52;;;;;;;7.70;7.20;;;12.90;99.90;;;;;;4962684;28;20224;-79
2023/03/08 13:25:35;;;;;;;8.60;8.00;;;12.90;99.90;;;;;;4954869;28;20202;-80
2023/03/08 13:28:05;;;;;;;8.10;7.60;;;12.90;99.90;;;;;;4953528;28;20199;-80
2023/03/08 13:30:34;;;;;;;8.20;7.60;;;12.80;99.90;;;;;;4952165;28;20191;-80
2023/03/08 13:33:07;;;;;;;8.37;7.87;;;12.80;99.90;;;;;;4966562;28;20212;-79
2023/03/08 13:35:34;;;;;;;8.43;7.90;;;12.90;99.90;;;;;;4967183;28;20672;-79
2023/03/08 13:38:01;;;;;;;8.10;7.70;;;13.00;99.90;;;;;;4965439;28;20678;-80
2023/03/08 13:40:30;;;;;;;7.90;7.50;;;13.00;99.90;;;;;;4973713;28;20225;-82
2023/03/08 13:42:58;;;;;;;8.10;7.70;;;13.10;99.90;;;;;;4972137;28;20202;-81
2023/03/08 13:45:27;;;;;;;8.50;8.00;;;13.10;99.90;;;;;;4963844;28;20676;-81
2023/03/08 13:47:56;;;;;;;8.60;7.87;;;13.20;99.90;;;;;;4962928;28;20201;-79
2023/03/08 13:50:27;;;;;;;9.00;8.07;;;13.30;99.90;;;;;;4959376;28;20565;-77
2023/03/08 13:52:54;;;;;;;8.83;8.00;;;13.30;99.90;;;;;;4969369;28;20259;-78
2023/03/08 13:55:29;;;;;;;8.43;7.72;;;13.50;99.90;;;;;;4969901;28;20434;-79
2023/03/08 13:57:56;;;;;;;10.90;9.97;;;13.60;99.90;;;;;;4964687;28;20217;-79
2023/03/08 14:00:28;;;;;;;9.73;8.93;;;13.60;99.90;;;;;;4973428;28;20214;-79
2023/03/08 14:02:57;;;;;;;8.50;8.00;;;13.60;99.90;;;;;;4962049;28;20740;-79
2023/03/08 14:05:26;;;;;;;9.20;8.60;;;13.70;99.90;;;;;;4962722;28;20305;-79
2023/03/08 14:07:58;;;;;;;10.07;9.27;;;13.70;99.90;;;;;;4977760;28;20229;-79
2023/03/08 14:10:31;;;;;;;7.97;7.57;;;13.60;99.90;;;;;;4968292;28;20732;-79
2023/03/08 14:12:58;;;;;;;8.20;7.70;;;13.60;99.90;;;;;;4970208;28;20209;-79
2023/03/08 14:15:26;;;;;;;8.20;7.70;;;13.60;99.90;;;;;;4965604;28;20203;-79
2023/03/08 14:17:53;;;;;;;8.00;7.40;;;13.60;99.90;;;;;;4963718;28;20200;-78
2023/03/08 14:20:22;;;;;;;8.10;7.50;;;13.50;99.90;;;;;;4956655;28;20230;-78
2023/03/08 14:22:50;;;;;;;8.77;8.10;;;13.50;99.90;;;;;;4968191;28;20207;-78
2023/03/08 14:25:27;;;;;;;8.20;7.70;;;13.50;99.90;;;;;;4962719;28;20194;-79
2023/03/08 14:27:54;;;;;;;8.30;7.70;;;13.40;99.90;;;;;;4969262;28;20213;-79
2023/03/08 14:30:22;;;;;;;9.30;8.77;;;13.50;99.90;;;;;;4959458;28;20278;-79
2023/03/08 14:40:24;;;;;;;6.05;5.75;;;13.50;99.90;;;;;;4970206;28;20393;-83
2023/03/08 14:42:53;;;;;;;7.80;7.30;;;13.60;99.90;;;;;;4959317;28;20200;-80
2023/03/08 14:45:23;;;;;;;8.63;8.13;;;13.70;99.90;;;;;;4966167;28;20252;-79
2023/03/08 14:47:51;;;;;;;8.70;8.10;;;13.70;99.90;;;;;;4961793;28;20195;-83
2023/03/08 14:50:21;;;;;;;8.50;8.00;;;13.70;99.90;;;;;;4975843;28;20702;-81
2023/03/08 14:52:52;;;;;;;8.27;7.80;;;13.70;99.90;;;;;;4964569;28;20268;-77
2023/03/08 14:55:23;;;;;;;8.70;8.10;;;13.70;99.90;;;;;;4961132;28;20196;-78
2023/03/08 14:57:52;;;;;;;8.20;7.70;;;13.70;99.90;;;;;;4959380;28;20198;-78
2023/03/08 15:00:19;;;;;;;8.10;7.70;;;13.70;99.90;;;;;;4970803;28;20200;-78
2023/03/08 15:02:46;;;;;;;8.50;7.80;;;13.70;99.90;;;;;;4967171;28;20209;-80
2023/03/08 15:05:14;;;;;;;8.30;7.90;;;13.70;99.90;;;;;;4948592;28;20209;-79
2023/03/08 15:07:41;;;;;;;8.00;7.50;;;13.70;99.90;;;;;;4954505;28;20224;-79
2023/03/08 15:10:18;;;;;;;7.70;7.30;;;13.70;99.90;;;;;;4950046;28;20260;-79
2023/03/08 15:12:46;;;;;;;7.90;7.30;;;13.70;99.90;;;;;;4959589;28;20225;-79
2023/03/08 15:15:14;;;;;;;8.40;7.90;;;13.60;99.90;;;;;;4951106;28;20222;-79
2023/03/08 15:17:41;;;;;;;8.10;7.70;;;13.50;99.90;;;;;;4957308;28;20204;-78
2023/03/08 15:20:11;;;;;;;8.43;7.97;;;13.40;99.90;;;;;;4949571;28;20235;-79
2023/03/08 15:22:42;;;;;;;8.67;8.17;;;13.50;99.90;;;;;;4947449;28;20249;-79
2023/03/08 15:25:14;;;;;;;8.07;7.60;;;13.50;99.90;;;;;;4949534;28;20202;-79
2023/03/08 15:27:41;;;;;;;8.37;7.87;;;13.50;99.90;;;;;;4946992;28;20200;-78
2023/03/08 15:30:19;;;;;;;7.87;7.47;;;13.40;99.90;;;;;;4948834;28;20582;-80
2023/03/08 15:32:46;;;;;;;8.10;7.60;;;13.20;99.90;;;;;;4946294;28;20674;-79
2023/03/08 15:35:13;;;;;;;7.90;7.43;;;13.10;99.90;;;;;;4956762;28;20212;-80
2023/03/08 15:37:41;;;;;;;7.63;7.13;;;13.00;99.90;;;;;;4951478;28;20235;-78
2023/03/08 15:40:13;;;;;;;7.43;7.03;;;12.90;99.90;;;;;;4955388;28;20217;-79
2023/03/08 15:42:40;;;;;;;7.97;7.50;;;12.90;99.90;;;;;;4950679;28;20708;-79
2023/03/08 15:45:08;;;;;;;8.33;7.73;;;12.90;99.90;;;;;;4953834;28;20206;-79
2023/03/08 15:47:37;;;;;;;7.80;7.30;;;12.90;99.90;;;;;;4957751;28;20204;-79
2023/03/08 15:50:04;;;;;;;8.00;7.50;;;12.90;99.90;;;;;;4952719;28;20298;-79
2023/03/08 15:52:31;;;;;;;7.57;7.17;;;12.90;99.90;;;;;;4949307;28;20226;-79
2023/03/08 15:54:59;;;;;;;8.30;7.70;;;12.90;99.90;;;;;;4950394;28;20227;-80
2023/03/08 15:57:25;;;;;;;8.37;7.80;;;12.80;99.90;;;;;;4950418;28;20268;-84
2023/03/08 15:59:52;;;;;;;8.03;7.53;;;12.80;99.90;;;;;;4947401;28;20282;-86
2023/03/08 16:02:20;;;;;;;8.50;7.80;;;12.80;99.90;;;;;;4952734;28;20235;-86